Gardner, MA

2:58 PM EDT on July 26, 2016 (GMT -0400)
City of Gardner Greenwood st. | | Change Station
Active Advisory: Special Statement

Elev 1080 ft 42.57 °N, 72.00 °W | Updated 13 seconds ago

Partly Cloudy
Partly Cloudy
83.5 °F
Feels Like 83 °F
N
0.0
Wind Variable Wind from NNE
Gusts 0.0 mph

Today
High -- | Low -- °F
--% Chance of Precip.
Yesterday
High -- | Low -- °F
Precip. -- in
Pressure 29.81 in
Visibility 10.0 miles
Clouds Few 7000 ft
Heat Index 83 °F
Dew Point 58 °F
Humidity 42%
Rainfall 0.00 in
Snow Depth Not available.
5:34 AM 8:14 PM
Waning Gibbous, 52% visible
METAR KFIT 261852Z AUTO 31012G21KT 10SM FEW070 33/14 A2982 RMK AO2 SLP095 T03330139
Pressure 29.81 in
Visibility 10.0 miles
Clouds Few 7000 ft
Heat Index 83 °F
Dew Point 58 °F
Humidity 42%
Rainfall 0.00 in
Snow Depth Not available.
5:34 AM 8:14 PM
Waning Gibbous, 52% visible
METAR KFIT 261852Z AUTO 31012G21KT 10SM FEW070 33/14 A2982 RMK AO2 SLP095 T03330139

10-Day Weather Forecast

Almanac

Astronomy

Jul. 26, 2016 Rise Set
Actual Time
Civil Twilight
Nautical Twilight
Astronomical Twilight
Moon
Length of Visible Light
Length of Day
Tomorrow will be .
, % of the Moon is Illuminated

Today's Extremes

State Highs State Lows

Community

WunderPhotos

Upload Photos

1,927,653 photos uploaded!

WunderBlog® & News

Nearby

Air Quality

  Air Quality AQ Index Pollutant
Not available.

Snow Depth

Station Depth Elevation

Earthquake Activity

City Distance Mag. Time & Date
Minimum magnitude displayed is 2.5.

Coastal Water Temperatures

Place Temperature

Stations

Nearby Weather Stations

Station Location Temp. Windchill Dew Point Humidity Wind Precip. Elev Updated Type
                   

Watches & Warnings

Special Statement
Issued: 7:27 AM EDT Jul. 26, 2016 – National Weather Service

... Elevated fire weather potential today and Wednesday...

Dry weather is expected today and Wednesday with minimum relative
humidity values near 30 percent. In addition... west winds will
gust around 20 mph around midday and the afternoon. These factors
combined with a lack of recent widespread rainfall will create an
elevated fire weather potential in interior sections of
Massachusetts... Rhode Island and Connecticut.


Dunten

727 am EDT Tue Jul 26 2016

... Elevated fire weather potential today and Wednesday...

Dry weather is expected today and Wednesday with minimum relative
humidity values near 30 percent. In addition... west winds will
gust around 20 mph around midday and the afternoon. These factors
combined with a lack of recent widespread rainfall will create an
elevated fire weather potential in interior sections of
Massachusetts... Rhode Island and Connecticut.


Dunten